Relevés horaires Chievres (Belgique)


Relevés horaires à Chievres - Jeudi 15 Juin 2017
Heure UTC1 Température [°C] Vent [km/h] Hum. [%] Pres.4 [hPa] Visi. [Km] Nébu. [octa] Préc.5 [mm] Cond.
2m. Res. Ros. Dir.2 Vit. Moy. Raf.3
23:00 14.8 14.8 9.1 OSO 5.6 -- 14.8 69 1018.6(0.7/3h) 20 -- -- --
22:00 15.6 15.6 9.3 OSO 7.4 -- 16.7 66 1018.3(1.1/3h) 20 -- -- --
21:00 16.7 16.5 10.7 O 11.1 -- 20.4 68 1018.2(1.8/3h) 20 -- -- --
20:00 17.7 17.7 11.1 OSO 9.3 -- 18.5 65 1017.7(2.0/3h) 20 -- -- --
19:00 19.0 19.0 11.8 O 11.1 -- 20.4 63 1017.1(1.6/3h) 20 -- -- --
18:00 21.3 21.3 9.3 O 11.1 -- 20.4 46 1016.2(1.0/3h) 20 -- -- --
17:00 23.4 23.4 8.1 O 13.0 -- 20.4 38 1015.6(0.5/3h) 19 -- -- --
16:00 24.7 24.7 8.3 OSO 13.0 -- 20.4 35 1015.2(0.5/3h) 20 -- -- --
15:00 25.9 25.9 9.5 O 13.0 -- 20.4 36 1015.1(0.4/3h) 20 -- -- --
14:00 25.9 25.9 12.3 O 11.1 -- 18.5 43 1014.8(0.1/3h) 20 -- -- --
13:00 26.0 26.0 14.1 O 11.1 -- 18.5 48 1014.7(0.0/3h) 20 -- -- --
12:00 25.6 25.6 15.6 O 9.3 -- 16.7 54 1014.6(0.0/3h) 18 -- -- --
11:00 25.9 25.9 15.7 O 7.4 -- 13.0 53 1014.7(0.8/3h) 18 -- -- --
10:00 24.8 24.8 15.6 O 7.4 -- 13.0 57 1014.7(0.7/3h) 18 -- -- --
09:00 23.7 23.7 15.7 O 7.4 -- 13.0 61 1014.6(0.6/3h) 20 -- -- --
08:00 24.7 24.7 15.2 SSO 7.4 -- 13.0 56 1013.8(0.0/3h) 20 -- -- --
07:00 22.8 22.8 14.5 S 5.6 -- 11.1 59 1014(0.2/3h) 17 -- -- --
06:00 19.5 19.5 14.2 S 3.7 -- 5.6 71 1014.1(0.1/3h) 18 -- -- --
05:00 16.1 16.1 12.9 NNO 1.9 -- 3.7 81 1014.1(-0.2/3h) 17 -- -- --
04:00 14.9 14.9 11.7 NNO 1.9 -- 3.7 81 1014(-0.8/3h) 13 -- -- --
03:00 15.3 15.3 10.9 NNO 1.9 -- 3.7 75 1014(-1.0/3h) 17 -- -- --
02:00 15.1 15.1 10.9 NNO 1.9 -- 1.9 76 1014.2(-1.1/3h) 18 -- -- --
01:00 14.3 14.3 11.0 NNO 1.9 -- 1.9 81 1014.7(-0.9/3h) 20 -- -- --
00:00 15.1 15.1 11.2 NNO 1.9 -- 9.3 78 1015.1(-0.6/3h) 20 -- -- --

1 Coordinated Universal Time. Actuellement il est 13:00 locale et 11:00 UTC.

2 Le vent souffle depuis la direction indiquée vers la direction oposée.

3 Les rafales max. sont disponible 40 min après l'heure du relevé.

4 Pour les stations d'altitude (plus de 600m) le géopotentiel du niveau le plus proche de la pression obligatoire est indiqué.

5 Les stations disposant d'un diffuseur peuvent indiquer "trace". Cela signifie que des précipitations ont touchés le sol mais que la quantité est inférieure à 0.1 mm.

Récapitulatif de la journée
Température [°C] Vent [km/h] Ensoleillement4 [h] Precipitations totale5 [mm] Pression [Hpa]
Min1 Max.2 Moy.3 Max. Min Max.
13.8 26.9 0 20.4 0 h 0 min 0 1013.8 1018.6

1 Température minimale relevée entre 18:00 UTC la veille et 18:00 UTC le jour donné.

2 Température maximale relevée entre 06:00 UTC le jour donné et 06:00 UTC le lendemain.

3 Vent moyen de la journée basé sur les relevés horaires.

4 Ensoleillement en heures relevé entre 06:00 UTC la veille et 06:00 UTC le jour donné.

5 Précipitations totales tombées entre 06:00 UTC la jour donné et 06:00 UTC le lendemain.

Graphiques horaires